sensor_id;sensor_type;location;lat;lon;timestamp;temperature;humidity
12164;DHT22;6145;50.192;10.064;2023-08-01T06:29:24;18.20;99.90
12164;DHT22;6145;50.192;10.064;2023-08-01T06:31:51;18.30;99.90
12164;DHT22;6145;50.192;10.064;2023-08-01T06:34:18;18.20;99.90
12164;DHT22;6145;50.192;10.064;2023-08-01T06:36:45;18.20;99.90
12164;DHT22;6145;50.192;10.064;2023-08-01T06:39:11;17.90;99.90
12164;DHT22;6145;50.192;10.064;2023-08-01T06:41:38;18.30;99.90
12164;DHT22;6145;50.192;10.064;2023-08-01T06:44:05;18.30;99.90
12164;DHT22;6145;50.192;10.064;2023-08-01T06:46:46;19.70;99.90
12164;DHT22;6145;50.192;10.064;2023-08-01T06:49:13;18.30;99.90
12164;DHT22;6145;50.192;10.064;2023-08-01T06:51:41;18.10;99.90
12164;DHT22;6145;50.192;10.064;2023-08-01T06:54:11;18.20;99.90
12164;DHT22;6145;50.192;10.064;2023-08-01T06:56:40;18.20;99.90
12164;DHT22;6145;50.192;10.064;2023-08-01T06:59:13;19.20;99.90
12164;DHT22;6145;50.192;10.064;2023-08-01T07:01:41;18.10;99.90
12164;DHT22;6145;50.192;10.064;2023-08-01T07:04:12;17.40;99.90
12164;DHT22;6145;50.192;10.064;2023-08-01T07:06:41;18.20;99.90
12164;DHT22;6145;50.192;10.064;2023-08-01T07:09:08;18.20;99.90
12164;DHT22;6145;50.192;10.064;2023-08-01T07:11:36;18.10;99.90
12164;DHT22;6145;50.192;10.064;2023-08-01T07:14:04;18.10;99.90
12164;DHT22;6145;50.192;10.064;2023-08-01T07:16:34;18.70;99.90
12164;DHT22;6145;50.192;10.064;2023-08-01T07:19:01;19.20;99.90
12164;DHT22;6145;50.192;10.064;2023-08-01T07:21:30;18.60;99.90
12164;DHT22;6145;50.192;10.064;2023-08-01T07:24:00;18.10;99.90
12164;DHT22;6145;50.192;10.064;2023-08-01T07:26:28;18.30;99.90
12164;DHT22;6145;50.192;10.064;2023-08-01T07:28:58;18.20;99.90
12164;DHT22;6145;50.192;10.064;2023-08-01T07:31:28;18.60;99.90
12164;DHT22;6145;50.192;10.064;2023-08-01T07:34:00;18.10;99.90
12164;DHT22;6145;50.192;10.064;2023-08-01T07:36:31;18.20;99.90
12164;DHT22;6145;50.192;10.064;2023-08-01T07:39:10;18.10;99.90
12164;DHT22;6145;50.192;10.064;2023-08-01T07:41:37;18.20;99.90
12164;DHT22;6145;50.192;10.064;2023-08-01T07:44:04;18.10;99.90
12164;DHT22;6145;50.192;10.064;2023-08-01T07:46:33;18.20;99.90
12164;DHT22;6145;50.192;10.064;2023-08-01T07:49:00;18.20;99.90
12164;DHT22;6145;50.192;10.064;2023-08-01T07:51:27;18.20;99.90
12164;DHT22;6145;50.192;10.064;2023-08-01T07:53:57;18.20;99.90
12164;DHT22;6145;50.192;10.064;2023-08-01T07:56:42;18.40;99.90
12164;DHT22;6145;50.192;10.064;2023-08-01T07:59:11;18.30;99.90
12164;DHT22;6145;50.192;10.064;2023-08-01T08:01:38;18.20;99.90
12164;DHT22;6145;50.192;10.064;2023-08-01T08:04:05;18.20;99.90
12164;DHT22;6145;50.192;10.064;2023-08-01T08:06:32;18.20;99.90
12164;DHT22;6145;50.192;10.064;2023-08-01T08:09:03;18.20;99.90
12164;DHT22;6145;50.192;10.064;2023-08-01T08:11:30;18.20;99.90
12164;DHT22;6145;50.192;10.064;2023-08-01T08:13:57;18.20;99.90
12164;DHT22;6145;50.192;10.064;2023-08-01T08:16:24;18.50;99.90
12164;DHT22;6145;50.192;10.064;2023-08-01T08:18:51;18.60;99.90
12164;DHT22;6145;50.192;10.064;2023-08-01T08:21:17;19.80;99.90
12164;DHT22;6145;50.192;10.064;2023-08-01T08:23:46;18.80;99.90
12164;DHT22;6145;50.192;10.064;2023-08-01T08:26:15;18.50;99.90
12164;DHT22;6145;50.192;10.064;2023-08-01T08:28:42;19.30;99.90
12164;DHT22;6145;50.192;10.064;2023-08-01T08:31:11;18.20;99.90
12164;DHT22;6145;50.192;10.064;2023-08-01T08:33:40;18.30;99.90
12164;DHT22;6145;50.192;10.064;2023-08-01T08:36:07;18.20;99.90
12164;DHT22;6145;50.192;10.064;2023-08-01T08:38:40;18.50;99.90
12164;DHT22;6145;50.192;10.064;2023-08-01T08:41:11;18.40;99.90
12164;DHT22;6145;50.192;10.064;2023-08-01T08:43:48;18.50;99.90
12164;DHT22;6145;50.192;10.064;2023-08-01T08:46:30;18.40;99.90
12164;DHT22;6145;50.192;10.064;2023-08-01T08:49:00;18.60;99.90
12164;DHT22;6145;50.192;10.064;2023-08-01T08:51:30;20.10;99.90
12164;DHT22;6145;50.192;10.064;2023-08-01T08:54:07;18.60;99.90
12164;DHT22;6145;50.192;10.064;2023-08-01T08:56:37;18.70;99.90
12164;DHT22;6145;50.192;10.064;2023-08-01T08:59:36;19.00;99.90
12164;DHT22;6145;50.192;10.064;2023-08-01T09:02:33;18.80;99.90
12164;DHT22;6145;50.192;10.064;2023-08-01T09:05:03;18.70;99.90
12164;DHT22;6145;50.192;10.064;2023-08-01T09:07:33;18.90;99.90
12164;DHT22;6145;50.192;10.064;2023-08-01T09:10:04;18.90;99.90
12164;DHT22;6145;50.192;10.064;2023-08-01T09:12:34;19.00;99.90
12164;DHT22;6145;50.192;10.064;2023-08-01T09:15:10;19.10;99.90
12164;DHT22;6145;50.192;10.064;2023-08-01T09:17:56;19.10;99.90
12164;DHT22;6145;50.192;10.064;2023-08-01T09:20:26;19.80;99.90
12164;DHT22;6145;50.192;10.064;2023-08-01T09:22:54;20.40;99.90
12164;DHT22;6145;50.192;10.064;2023-08-01T09:25:31;19.20;99.90
12164;DHT22;6145;50.192;10.064;2023-08-01T09:28:14;19.30;99.90
12164;DHT22;6145;50.192;10.064;2023-08-01T09:30:50;19.50;99.90
12164;DHT22;6145;50.192;10.064;2023-08-01T09:33:20;19.50;99.90
12164;DHT22;6145;50.192;10.064;2023-08-01T09:35:52;19.70;99.90
12164;DHT22;6145;50.192;10.064;2023-08-01T09:38:24;21.10;99.90
12164;DHT22;6145;50.192;10.064;2023-08-01T09:40:52;19.70;99.90
12164;DHT22;6145;50.192;10.064;2023-08-01T09:43:25;21.30;99.90
12164;DHT22;6145;50.192;10.064;2023-08-01T09:46:01;19.80;99.30
12164;DHT22;6145;50.192;10.064;2023-08-01T09:48:29;19.90;98.60
12164;DHT22;6145;50.192;10.064;2023-08-01T09:51:07;20.10;98.00
12164;DHT22;6145;50.192;10.064;2023-08-01T09:53:34;20.10;98.10
12164;DHT22;6145;50.192;10.064;2023-08-01T09:56:02;20.00;97.60
12164;DHT22;6145;50.192;10.064;2023-08-01T09:58:32;20.10;98.20
12164;DHT22;6145;50.192;10.064;2023-08-01T10:01:01;20.20;97.50
12164;DHT22;6145;50.192;10.064;2023-08-01T10:03:30;20.30;97.30
12164;DHT22;6145;50.192;10.064;2023-08-01T10:05:58;20.70;97.20
12164;DHT22;6145;50.192;10.064;2023-08-01T10:08:25;20.50;97.00
12164;DHT22;6145;50.192;10.064;2023-08-01T10:10:53;21.90;97.40
12164;DHT22;6145;50.192;10.064;2023-08-01T10:13:24;20.70;96.20
12164;DHT22;6145;50.192;10.064;2023-08-01T10:15:53;20.70;95.20
12164;DHT22;6145;50.192;10.064;2023-08-01T10:18:25;21.80;95.10
12164;DHT22;6145;50.192;10.064;2023-08-01T10:20:52;21.50;94.70
12164;DHT22;6145;50.192;10.064;2023-08-01T10:23:20;21.00;93.50
12164;DHT22;6145;50.192;10.064;2023-08-01T10:25:47;21.00;93.20
12164;DHT22;6145;50.192;10.064;2023-08-01T10:28:14;21.90;93.90
12164;DHT22;6145;50.192;10.064;2023-08-01T10:30:40;21.40;93.30
12164;DHT22;6145;50.192;10.064;2023-08-01T10:33:10;21.60;93.30
12164;DHT22;6145;50.192;10.064;2023-08-01T10:53:48;22.40;90.80
12164;DHT22;6145;50.192;10.064;2023-08-01T10:56:18;22.70;90.80
12164;DHT22;6145;50.192;10.064;2023-08-01T10:58:46;22.80;89.60
12164;DHT22;6145;50.192;10.064;2023-08-01T11:01:13;22.80;86.60
12164;DHT22;6145;50.192;10.064;2023-08-01T11:03:40;23.10;89.30
12164;DHT22;6145;50.192;10.064;2023-08-01T11:06:08;23.20;88.30
12164;DHT22;6145;50.192;10.064;2023-08-01T11:08:36;23.20;87.90
12164;DHT22;6145;50.192;10.064;2023-08-01T11:11:05;23.40;88.40
12164;DHT22;6145;50.192;10.064;2023-08-01T11:13:33;23.60;82.30
12164;DHT22;6145;50.192;10.064;2023-08-01T11:16:02;23.60;82.80
12164;DHT22;6145;50.192;10.064;2023-08-01T11:18:30;23.80;80.70
12164;DHT22;6145;50.192;10.064;2023-08-01T11:20:57;23.90;79.20
12164;DHT22;6145;50.192;10.064;2023-08-01T11:23:28;23.90;79.00
12164;DHT22;6145;50.192;10.064;2023-08-01T11:25:56;23.90;77.30
12164;DHT22;6145;50.192;10.064;2023-08-01T11:28:24;24.00;74.00
12164;DHT22;6145;50.192;10.064;2023-08-01T11:30:51;23.90;74.20
12164;DHT22;6145;50.192;10.064;2023-08-01T11:33:19;24.00;76.50
12164;DHT22;6145;50.192;10.064;2023-08-01T11:35:50;24.00;76.80
12164;DHT22;6145;50.192;10.064;2023-08-01T11:38:19;24.10;75.70
12164;DHT22;6145;50.192;10.064;2023-08-01T11:40:47;24.40;74.20
12164;DHT22;6145;50.192;10.064;2023-08-01T11:43:14;24.30;72.80
12164;DHT22;6145;50.192;10.064;2023-08-01T11:45:56;24.40;71.80
12164;DHT22;6145;50.192;10.064;2023-08-01T11:59:09;24.60;73.70
12164;DHT22;6145;50.192;10.064;2023-08-01T12:01:44;24.70;72.30
12164;DHT22;6145;50.192;10.064;2023-08-01T12:04:24;24.80;71.90
12164;DHT22;6145;50.192;10.064;2023-08-01T12:06:52;24.80;71.20
12164;DHT22;6145;50.192;10.064;2023-08-01T12:12:08;24.80;74.50
12164;DHT22;6145;50.192;10.064;2023-08-01T12:14:39;24.60;76.10
12164;DHT22;6145;50.192;10.064;2023-08-01T12:17:08;24.50;77.10
12164;DHT22;6145;50.192;10.064;2023-08-01T12:19:35;25.50;78.80
12164;DHT22;6145;50.192;10.064;2023-08-01T12:22:05;24.30;78.40
12164;DHT22;6145;50.192;10.064;2023-08-01T12:24:32;24.20;78.60
12164;DHT22;6145;50.192;10.064;2023-08-01T12:27:03;24.50;79.20
12164;DHT22;6145;50.192;10.064;2023-08-01T12:29:33;23.90;80.00
12164;DHT22;6145;50.192;10.064;2023-08-01T12:35:13;23.70;82.20
12164;DHT22;6145;50.192;10.064;2023-08-01T12:38:21;24.00;83.90
12164;DHT22;6145;50.192;10.064;2023-08-01T12:47:27;23.40;83.00
12164;DHT22;6145;50.192;10.064;2023-08-01T12:50:35;23.30;84.90
12164;DHT22;6145;50.192;10.064;2023-08-01T13:03:43;23.40;82.20
12164;DHT22;6145;50.192;10.064;2023-08-01T13:06:14;23.90;81.40
12164;DHT22;6145;50.192;10.064;2023-08-01T13:08:46;24.10;81.20
12164;DHT22;6145;50.192;10.064;2023-08-01T13:11:19;24.20;78.00
12164;DHT22;6145;50.192;10.064;2023-08-01T13:13:52;24.10;78.60
12164;DHT22;6145;50.192;10.064;2023-08-01T13:16:22;24.00;76.50
12164;DHT22;6145;50.192;10.064;2023-08-01T13:18:51;24.20;75.70
12164;DHT22;6145;50.192;10.064;2023-08-01T13:21:18;24.20;75.10
12164;DHT22;6145;50.192;10.064;2023-08-01T13:23:49;24.20;75.50
12164;DHT22;6145;50.192;10.064;2023-08-01T13:26:19;24.30;75.70
12164;DHT22;6145;50.192;10.064;2023-08-01T13:28:47;24.40;74.90
12164;DHT22;6145;50.192;10.064;2023-08-01T13:31:16;24.40;74.20
12164;DHT22;6145;50.192;10.064;2023-08-01T13:33:46;24.50;75.00
12164;DHT22;6145;50.192;10.064;2023-08-01T13:36:17;24.50;74.00
12164;DHT22;6145;50.192;10.064;2023-08-01T13:38:48;24.60;72.00
12164;DHT22;6145;50.192;10.064;2023-08-01T13:41:20;24.80;72.30
12164;DHT22;6145;50.192;10.064;2023-08-01T13:43:54;24.50;71.60
12164;DHT22;6145;50.192;10.064;2023-08-01T13:46:21;24.80;72.80
12164;DHT22;6145;50.192;10.064;2023-08-01T13:48:52;24.80;73.20
12164;DHT22;6145;50.192;10.064;2023-08-01T13:51:24;24.90;73.60
12164;DHT22;6145;50.192;10.064;2023-08-01T13:53:53;25.20;70.80
12164;DHT22;6145;50.192;10.064;2023-08-01T13:56:24;25.10;69.90
12164;DHT22;6145;50.192;10.064;2023-08-01T13:58:53;26.20;70.30
12164;DHT22;6145;50.192;10.064;2023-08-01T14:01:20;26.20;70.20
12164;DHT22;6145;50.192;10.064;2023-08-01T14:03:48;25.00;69.00
12164;DHT22;6145;50.192;10.064;2023-08-01T14:06:18;25.50;71.00
12164;DHT22;6145;50.192;10.064;2023-08-01T14:09:02;24.90;67.70
12164;DHT22;6145;50.192;10.064;2023-08-01T14:11:30;25.10;70.30
12164;DHT22;6145;50.192;10.064;2023-08-01T14:14:04;25.70;68.90
12164;DHT22;6145;50.192;10.064;2023-08-01T14:16:32;25.30;69.50
12164;DHT22;6145;50.192;10.064;2023-08-01T14:19:04;25.20;68.70
12164;DHT22;6145;50.192;10.064;2023-08-01T14:21:34;25.40;67.50
12164;DHT22;6145;50.192;10.064;2023-08-01T14:24:06;25.20;66.20
12164;DHT22;6145;50.192;10.064;2023-08-01T14:26:35;25.20;65.10
12164;DHT22;6145;50.192;10.064;2023-08-01T14:29:04;25.10;64.00
12164;DHT22;6145;50.192;10.064;2023-08-01T14:31:31;25.00;63.40
12164;DHT22;6145;50.192;10.064;2023-08-01T14:33:59;24.00;62.40
12164;DHT22;6145;50.192;10.064;2023-08-01T14:36:26;25.50;64.10
12164;DHT22;6145;50.192;10.064;2023-08-01T14:38:54;24.80;64.30
12164;DHT22;6145;50.192;10.064;2023-08-01T14:41:26;24.80;65.20
12164;DHT22;6145;50.192;10.064;2023-08-01T14:43:53;24.50;65.20
12164;DHT22;6145;50.192;10.064;2023-08-01T14:46:20;25.60;64.50
12164;DHT22;6145;50.192;10.064;2023-08-01T14:48:47;24.70;65.70
12164;DHT22;6145;50.192;10.064;2023-08-01T14:51:14;24.90;66.70
12164;DHT22;6145;50.192;10.064;2023-08-01T14:53:40;24.90;64.30
12164;DHT22;6145;50.192;10.064;2023-08-01T14:56:07;24.90;65.30
12164;DHT22;6145;50.192;10.064;2023-08-01T14:58:35;24.90;64.00
12164;DHT22;6145;50.192;10.064;2023-08-01T15:01:05;25.10;65.80
12164;DHT22;6145;50.192;10.064;2023-08-01T16:41:57;22.00;75.20
12164;DHT22;6145;50.192;10.064;2023-08-01T16:44:30;21.80;76.30
12164;DHT22;6145;50.192;10.064;2023-08-01T16:46:57;21.80;76.10
12164;DHT22;6145;50.192;10.064;2023-08-01T16:49:24;22.10;76.30
12164;DHT22;6145;50.192;10.064;2023-08-01T16:51:51;21.90;76.60
12164;DHT22;6145;50.192;10.064;2023-08-01T16:54:20;21.70;76.20
12164;DHT22;6145;50.192;10.064;2023-08-01T16:56:47;21.70;76.30
12164;DHT22;6145;50.192;10.064;2023-08-01T16:59:16;21.70;76.70
12164;DHT22;6145;50.192;10.064;2023-08-01T17:01:43;21.60;76.70
12164;DHT22;6145;50.192;10.064;2023-08-01T17:04:10;21.60;77.00
12164;DHT22;6145;50.192;10.064;2023-08-01T17:06:36;21.50;77.10
12164;DHT22;6145;50.192;10.064;2023-08-01T17:09:04;21.60;77.60
12164;DHT22;6145;50.192;10.064;2023-08-01T17:11:32;21.10;77.20
12164;DHT22;6145;50.192;10.064;2023-08-01T17:13:59;22.10;78.40
12164;DHT22;6145;50.192;10.064;2023-08-01T17:16:28;21.60;78.10
12164;DHT22;6145;50.192;10.064;2023-08-01T17:18:55;21.60;77.90
12164;DHT22;6145;50.192;10.064;2023-08-01T17:21:23;21.70;77.90
12164;DHT22;6145;50.192;10.064;2023-08-01T17:23:50;21.90;78.30
12164;DHT22;6145;50.192;10.064;2023-08-01T17:26:18;21.50;78.00
12164;DHT22;6145;50.192;10.064;2023-08-01T17:28:45;21.70;78.50
12164;DHT22;6145;50.192;10.064;2023-08-01T17:31:12;21.40;78.40
12164;DHT22;6145;50.192;10.064;2023-08-01T17:33:41;21.40;79.10
12164;DHT22;6145;50.192;10.064;2023-08-01T17:36:07;21.40;79.50
12164;DHT22;6145;50.192;10.064;2023-08-01T17:38:34;21.50;79.80
12164;DHT22;6145;50.192;10.064;2023-08-01T17:41:16;21.40;79.60
12164;DHT22;6145;50.192;10.064;2023-08-01T17:43:43;21.30;79.80
12164;DHT22;6145;50.192;10.064;2023-08-01T17:46:11;21.20;79.70
12164;DHT22;6145;50.192;10.064;2023-08-01T17:48:51;21.20;79.60
12164;DHT22;6145;50.192;10.064;2023-08-01T17:51:19;22.10;80.90
12164;DHT22;6145;50.192;10.064;2023-08-01T17:53:46;21.10;79.80
12164;DHT22;6145;50.192;10.064;2023-08-01T17:56:14;21.40;80.20
12164;DHT22;6145;50.192;10.064;2023-08-01T17:58:41;21.20;80.20
12164;DHT22;6145;50.192;10.064;2023-08-01T18:01:08;21.70;81.10
12164;DHT22;6145;50.192;10.064;2023-08-01T18:03:35;21.00;80.70
12164;DHT22;6145;50.192;10.064;2023-08-01T18:06:05;21.00;80.70
12164;DHT22;6145;50.192;10.064;2023-08-01T18:08:32;21.40;81.00
12164;DHT22;6145;50.192;10.064;2023-08-01T18:11:17;21.00;80.40
12164;DHT22;6145;50.192;10.064;2023-08-01T18:13:45;21.10;80.00
12164;DHT22;6145;50.192;10.064;2023-08-01T18:16:18;21.00;79.90
12164;DHT22;6145;50.192;10.064;2023-08-01T18:18:46;21.10;80.10
12164;DHT22;6145;50.192;10.064;2023-08-01T18:21:16;21.00;79.80
12164;DHT22;6145;50.192;10.064;2023-08-01T18:23:49;21.50;80.30
12164;DHT22;6145;50.192;10.064;2023-08-01T18:26:18;20.20;79.30
12164;DHT22;6145;50.192;10.064;2023-08-01T18:28:53;21.20;79.60
12164;DHT22;6145;50.192;10.064;2023-08-01T18:31:39;21.30;79.70
12164;DHT22;6145;50.192;10.064;2023-08-01T18:34:08;19.40;78.40
12164;DHT22;6145;50.192;10.064;2023-08-01T18:36:47;20.60;79.30
12164;DHT22;6145;50.192;10.064;2023-08-01T18:39:30;20.60;79.90
12164;DHT22;6145;50.192;10.064;2023-08-01T18:42:09;20.60;79.70
12164;DHT22;6145;50.192;10.064;2023-08-01T18:44:59;19.60;78.70
12164;DHT22;6145;50.192;10.064;2023-08-01T18:47:34;20.60;80.10
12164;DHT22;6145;50.192;10.064;2023-08-01T18:50:13;20.10;79.90
12164;DHT22;6145;50.192;10.064;2023-08-01T18:52:45;20.40;80.50
12164;DHT22;6145;50.192;10.064;2023-08-01T18:55:37;20.50;80.90
12164;DHT22;6145;50.192;10.064;2023-08-01T18:58:06;20.30;81.10
12164;DHT22;6145;50.192;10.064;2023-08-01T19:00:43;20.10;81.10
12164;DHT22;6145;50.192;10.064;2023-08-01T19:06:43;19.90;82.20
12164;DHT22;6145;50.192;10.064;2023-08-01T19:09:17;20.00;82.90
12164;DHT22;6145;50.192;10.064;2023-08-01T19:15:04;19.80;83.20
12164;DHT22;6145;50.192;10.064;2023-08-01T19:17:42;19.80;83.50
12164;DHT22;6145;50.192;10.064;2023-08-01T19:20:29;19.80;84.00
12164;DHT22;6145;50.192;10.064;2023-08-01T19:23:09;20.10;84.30
12164;DHT22;6145;50.192;10.064;2023-08-01T19:25:46;19.60;84.10
12164;DHT22;6145;50.192;10.064;2023-08-01T19:28:39;19.60;84.40
12164;DHT22;6145;50.192;10.064;2023-08-01T19:31:14;19.50;84.80
12164;DHT22;6145;50.192;10.064;2023-08-01T19:33:53;19.50;85.00
12164;DHT22;6145;50.192;10.064;2023-08-01T19:36:31;19.50;85.20
12164;DHT22;6145;50.192;10.064;2023-08-01T19:39:06;19.50;85.40
12164;DHT22;6145;50.192;10.064;2023-08-01T19:41:35;19.40;85.80
12164;DHT22;6145;50.192;10.064;2023-08-01T19:44:02;19.40;85.70
12164;DHT22;6145;50.192;10.064;2023-08-01T19:46:29;19.30;85.80
12164;DHT22;6145;50.192;10.064;2023-08-01T19:48:59;19.90;86.40
12164;DHT22;6145;50.192;10.064;2023-08-01T19:51:32;19.30;85.90
12164;DHT22;6145;50.192;10.064;2023-08-01T19:53:59;19.30;86.10
12164;DHT22;6145;50.192;10.064;2023-08-01T19:56:30;20.20;86.50
12164;DHT22;6145;50.192;10.064;2023-08-01T19:58:58;19.30;86.00
12164;DHT22;6145;50.192;10.064;2023-08-01T20:01:25;19.30;86.00
12164;DHT22;6145;50.192;10.064;2023-08-01T20:06:40;19.30;86.30
12164;DHT22;6145;50.192;10.064;2023-08-01T20:09:08;20.80;88.20
12164;DHT22;6145;50.192;10.064;2023-08-01T20:11:37;19.30;86.20
12164;DHT22;6145;50.192;10.064;2023-08-01T20:14:06;19.30;86.10
12164;DHT22;6145;50.192;10.064;2023-08-01T20:16:33;19.20;86.20
12164;DHT22;6145;50.192;10.064;2023-08-01T20:19:02;19.10;86.10
12164;DHT22;6145;50.192;10.064;2023-08-01T20:21:29;19.20;86.10
12164;DHT22;6145;50.192;10.064;2023-08-01T20:23:56;19.10;86.20
12164;DHT22;6145;50.192;10.064;2023-08-01T20:26:22;19.20;86.20
12164;DHT22;6145;50.192;10.064;2023-08-01T20:28:49;19.20;86.40
12164;DHT22;6145;50.192;10.064;2023-08-01T20:31:21;19.10;86.20
12164;DHT22;6145;50.192;10.064;2023-08-01T20:33:50;19.10;86.20
12164;DHT22;6145;50.192;10.064;2023-08-01T20:36:17;19.20;86.10
12164;DHT22;6145;50.192;10.064;2023-08-01T20:38:44;19.00;85.90
12164;DHT22;6145;50.192;10.064;2023-08-01T20:41:12;19.00;85.90
12164;DHT22;6145;50.192;10.064;2023-08-01T20:43:39;19.00;85.80
12164;DHT22;6145;50.192;10.064;2023-08-01T20:46:06;20.00;86.80
12164;DHT22;6145;50.192;10.064;2023-08-01T20:48:34;20.50;87.50
12164;DHT22;6145;50.192;10.064;2023-08-01T20:51:01;18.90;85.90
12164;DHT22;6145;50.192;10.064;2023-08-01T20:53:28;18.80;86.00
12164;DHT22;6145;50.192;10.064;2023-08-01T20:55:54;18.80;86.00
12164;DHT22;6145;50.192;10.064;2023-08-01T20:58:22;18.80;86.10
12164;DHT22;6145;50.192;10.064;2023-08-01T21:00:49;18.80;86.00
12164;DHT22;6145;50.192;10.064;2023-08-01T21:03:16;18.70;86.10
12164;DHT22;6145;50.192;10.064;2023-08-01T21:05:44;18.70;86.30
12164;DHT22;6145;50.192;10.064;2023-08-01T21:08:11;18.70;86.00
12164;DHT22;6145;50.192;10.064;2023-08-01T21:10:38;20.00;87.40
12164;DHT22;6145;50.192;10.064;2023-08-01T21:13:05;18.80;86.40
12164;DHT22;6145;50.192;10.064;2023-08-01T21:15:31;18.70;86.00
12164;DHT22;6145;50.192;10.064;2023-08-01T21:17:58;18.70;86.10
12164;DHT22;6145;50.192;10.064;2023-08-01T21:20:25;18.70;86.10
12164;DHT22;6145;50.192;10.064;2023-08-01T21:22:53;18.70;86.10
12164;DHT22;6145;50.192;10.064;2023-08-01T21:25:20;18.90;86.20
12164;DHT22;6145;50.192;10.064;2023-08-01T21:27:47;18.70;86.00
12164;DHT22;6145;50.192;10.064;2023-08-01T21:30:14;18.70;85.80
12164;DHT22;6145;50.192;10.064;2023-08-01T21:32:42;18.70;85.80
12164;DHT22;6145;50.192;10.064;2023-08-01T21:35:09;18.70;86.00
12164;DHT22;6145;50.192;10.064;2023-08-01T21:37:37;19.10;86.60
12164;DHT22;6145;50.192;10.064;2023-08-01T21:40:06;18.60;86.30
12164;DHT22;6145;50.192;10.064;2023-08-01T21:42:35;18.50;86.40
12164;DHT22;6145;50.192;10.064;2023-08-01T21:45:04;18.60;86.70
12164;DHT22;6145;50.192;10.064;2023-08-01T21:47:32;18.40;86.70
12164;DHT22;6145;50.192;10.064;2023-08-01T21:49:58;18.30;86.70
12164;DHT22;6145;50.192;10.064;2023-08-01T21:52:25;18.60;87.10
12164;DHT22;6145;50.192;10.064;2023-08-01T21:54:52;18.30;87.00
12164;DHT22;6145;50.192;10.064;2023-08-01T21:57:20;18.30;87.00
12164;DHT22;6145;50.192;10.064;2023-08-01T21:59:49;18.30;87.30
12164;DHT22;6145;50.192;10.064;2023-08-01T22:02:15;18.20;87.30
12164;DHT22;6145;50.192;10.064;2023-08-01T22:04:42;18.20;87.40
12164;DHT22;6145;50.192;10.064;2023-08-01T22:07:09;18.20;87.60
12164;DHT22;6145;50.192;10.064;2023-08-01T22:09:36;18.20;87.70
12164;DHT22;6145;50.192;10.064;2023-08-01T22:12:03;18.10;87.70
12164;DHT22;6145;50.192;10.064;2023-08-01T22:14:32;18.10;87.90
12164;DHT22;6145;50.192;10.064;2023-08-01T22:16:58;19.30;89.30
12164;DHT22;6145;50.192;10.064;2023-08-01T22:19:25;18.10;88.30
12164;DHT22;6145;50.192;10.064;2023-08-01T22:21:52;18.00;88.60
12164;DHT22;6145;50.192;10.064;2023-08-01T22:24:18;18.00;88.80
12164;DHT22;6145;50.192;10.064;2023-08-01T22:26:45;18.00;89.00
12164;DHT22;6145;50.192;10.064;2023-08-01T22:29:12;18.10;89.30
12164;DHT22;6145;50.192;10.064;2023-08-01T22:31:40;18.00;89.40
12164;DHT22;6145;50.192;10.064;2023-08-01T22:34:07;18.00;89.40
12164;DHT22;6145;50.192;10.064;2023-08-01T22:36:36;18.00;89.50
12164;DHT22;6145;50.192;10.064;2023-08-01T22:39:03;18.00;89.60
12164;DHT22;6145;50.192;10.064;2023-08-01T22:41:30;18.00;89.70
12164;DHT22;6145;50.192;10.064;2023-08-01T22:43:57;18.10;90.00
12164;DHT22;6145;50.192;10.064;2023-08-01T22:46:24;18.00;90.00
12164;DHT22;6145;50.192;10.064;2023-08-01T22:48:53;18.00;90.00
12164;DHT22;6145;50.192;10.064;2023-08-01T22:51:21;18.00;90.00
12164;DHT22;6145;50.192;10.064;2023-08-01T22:53:49;18.10;90.10
12164;DHT22;6145;50.192;10.064;2023-08-01T22:56:17;17.90;90.10
12164;DHT22;6145;50.192;10.064;2023-08-01T22:58:44;17.90;90.20
12164;DHT22;6145;50.192;10.064;2023-08-01T23:01:13;18.20;90.50
12164;DHT22;6145;50.192;10.064;2023-08-01T23:03:41;17.90;90.40
12164;DHT22;6145;50.192;10.064;2023-08-01T23:06:11;17.90;90.40
12164;DHT22;6145;50.192;10.064;2023-08-01T23:08:38;17.90;90.50
12164;DHT22;6145;50.192;10.064;2023-08-01T23:11:05;17.90;90.50
12164;DHT22;6145;50.192;10.064;2023-08-01T23:13:32;17.90;90.50
12164;DHT22;6145;50.192;10.064;2023-08-01T23:15:59;18.10;90.60
12164;DHT22;6145;50.192;10.064;2023-08-01T23:18:26;18.00;90.40
12164;DHT22;6145;50.192;10.064;2023-08-01T23:20:56;18.00;90.40
12164;DHT22;6145;50.192;10.064;2023-08-01T23:23:25;18.00;90.40
12164;DHT22;6145;50.192;10.064;2023-08-01T23:26:01;18.10;90.40
12164;DHT22;6145;50.192;10.064;2023-08-01T23:28:28;18.00;90.40
12164;DHT22;6145;50.192;10.064;2023-08-01T23:30:55;18.00;90.40
12164;DHT22;6145;50.192;10.064;2023-08-01T23:33:23;18.00;90.40
12164;DHT22;6145;50.192;10.064;2023-08-01T23:35:50;18.00;90.50
12164;DHT22;6145;50.192;10.064;2023-08-01T23:38:17;18.00;90.30
12164;DHT22;6145;50.192;10.064;2023-08-01T23:40:47;18.10;90.30
12164;DHT22;6145;50.192;10.064;2023-08-01T23:43:14;17.90;90.30
12164;DHT22;6145;50.192;10.064;2023-08-01T23:45:46;17.90;90.40
12164;DHT22;6145;50.192;10.064;2023-08-01T23:48:13;18.00;90.50
12164;DHT22;6145;50.192;10.064;2023-08-01T23:50:40;17.90;90.40
12164;DHT22;6145;50.192;10.064;2023-08-01T23:53:09;18.00;90.50
12164;DHT22;6145;50.192;10.064;2023-08-01T23:55:37;17.90;90.40
12164;DHT22;6145;50.192;10.064;2023-08-01T23:58:06;17.90;90.40
